Buoy 17652

sailwx.info

Track history (hours):
 
Tides and Currents Weather Stations Pressure Air Temp Water Temp Dewpoint Dewpoint Depression Visibility Wind Speed Wind Dir Waves Ship Positions

Drifting buoy 17652

Last reported at 2014-Oct-20 18:00 UTC. Time now 2014-Oct-20 21:15 UTC.
Position S 37°34' E 042°23'.

Water temperature 16.8 ° C

Date/timePositionNaut miles runAvg speedWind from/ knotsBaromVisibWave heightAir tempDewpointWater temp
2014-Oct-20 18:00S 37°34' E 042°23'5 1.6 16.8
2014-Oct-20 15:00S 37°34' E 042°29'0 0.0 16.9
2014-Oct-20 14:00S 37°34' E 042°29'3 0.7 16.9
2014-Oct-20 09:00S 37°36' E 042°33'5 1.7 16.9
2014-Oct-20 06:00S 37°40' E 042°37'0 0.0 16.9
2014-Oct-20 05:00S 37°40' E 042°37'1 0.6 16.9
2014-Oct-20 04:00S 37°40' E 042°37'1 0.6 16.9
2014-Oct-20 02:00S 37°41' E 042°38'1 1.1 16.9
2014-Oct-20 01:00S 37°42' E 042°38'1 0.7 16.9
2014-Oct-20 00:00S 37°42' E 042°39'1 0.4 16.9
2014-Oct-19 21:00S 37°43' E 042°40'1 1.4 16.9
2014-Oct-19 20:00S 37°45' E 042°41'1 0.5 16.9
2014-Oct-19 18:00S 37°45' E 042°42'1 0.6 16.9
2014-Oct-19 16:00S 37°46' E 042°43'1 0.6 16.9
2014-Oct-19 15:00S 37°46' E 042°43'0 0.3 16.9
2014-Oct-19 14:00S 37°47' E 042°43'1 1.1 16.9
2014-Oct-19 13:00S 37°47' E 042°44'1 0.8 16.9
2014-Oct-19 12:00S 37°47' E 042°45'1 0.3 16.9
2014-Oct-19 10:00S 37°47' E 042°46'4 0.8 16.9
2014-Oct-19 05:00S 37°48' E 042°51'0 0.0 16.9
2014-Oct-19 04:00S 37°48' E 042°51'0 0.1 16.9
2014-Oct-19 03:00S 37°48' E 042°51'2 1.7 16.9
2014-Oct-19 02:00S 37°48' E 042°53'1 1.0 16.9
2014-Oct-19 01:00S 37°49' E 042°54'1 0.5 16.9
2014-Oct-18 22:00S 37°50' E 042°55'1 1.0 16.9
2014-Oct-18 21:00S 37°50' E 042°56'2 0.6 16.9
2014-Oct-18 17:00S 37°51' E 042°59'1 0.7 16.9
2014-Oct-18 15:00S 37°52' E 042°60'2 0.8 16.9
2014-Oct-18 13:00S 37°53' E 043°02'0 0.3 16.9
2014-Oct-18 12:00S 37°53' E 043°02'1 1.2 17.0
2014-Oct-18 11:00S 37°54' E 043°03'4 0.7 17.0
2014-Oct-18 06:00S 37°56' E 043°06'2 2.2 16.9
2014-Oct-18 05:00S 37°58' E 043°08'1 0.4 16.9
2014-Oct-18 02:00S 37°59' E 043°09'1 1.2 16.9
2014-Oct-18 01:00S 38°00' E 043°09'5 1.0 16.9
2014-Oct-17 20:00S 38°05' E 043°11'2 1.6 16.9
2014-Oct-17 19:00S 38°06' E 043°11'1 0.5 16.9
2014-Oct-17 17:00S 38°07' E 043°12'1 0.7 16.9
2014-Oct-17 15:00S 38°08' E 043°14'8 0.8 16.9
2014-Oct-17 05:00S 38°12' E 043°22'4 1.5 16.4
2014-Oct-17 02:00S 38°15' E 043°25'0 0.0 16.4
2014-Oct-17 01:00S 38°15' E 043°25'1 1.4 16.4
2014-Oct-17 00:00S 38°16' E 043°27'2 0.6 16.4
2014-Oct-16 20:00S 38°18' E 043°29'4 1.2 16.4
2014-Oct-16 17:00S 38°20' E 043°33'14 1.3 16.6
2014-Oct-16 06:00S 38°31' E 043°45'4 0.7 16.7
2014-Oct-16 01:00S 38°33' E 043°48'2 0.6 16.6
2014-Oct-15 22:00S 38°34' E 043°50'4 1.1 16.6
2014-Oct-15 18:00S 38°37' E 043°54'2 1.0 16.7
2014-Oct-15 16:00S 38°37' E 043°57'4 2.2 16.7
2014-Oct-15 14:00S 38°39' E 044°01'1 0.6 16.7
2014-Oct-15 13:00S 38°40' E 044°02'13 1.8 16.7
2014-Oct-15 06:00S 38°47' E 044°16'6 1.4 16.7
2014-Oct-15 02:00S 38°50' E 044°21'2 2.1 16.6
2014-Oct-15 01:00S 38°51' E 044°23'0 0.0 16.6
2014-Oct-15 00:00S 38°51' E 044°23'3 1.6 16.6
2014-Oct-14 22:00S 38°54' E 044°26'3 1.6 16.5
2014-Oct-14 20:00S 38°56' E 044°29'10 1.9 16.5
2014-Oct-14 15:00S 39°01' E 044°39'1 0.6 16.4
2014-Oct-14 14:00S 39°02' E 044°40'0 0.5 16.4
2014-Oct-14 13:00S 39°02' E 044°40'7 2.5 16.4
2014-Oct-14 10:00S 39°05' E 044°49'7 1.6 16.5
2014-Oct-14 06:00S 39°10' E 044°54'1 1.4 16.4
2014-Oct-14 05:00S 39°11' E 044°55'4 4.5 16.4
2014-Oct-14 04:00S 39°16' E 044°57'3 1.4 16.4
2014-Oct-14 02:00S 39°18' E 044°58'2 0.6 16.4
2014-Oct-13 23:00S 39°20' E 044°58'4 3.5 16.3
2014-Oct-13 22:00S 39°24' E 044°58'10 2.0 16.3
2014-Oct-13 17:00S 39°33' E 044°56'1 0.2 16.2
2014-Oct-13 14:00S 39°34' E 044°56'3 3.1 16.2
2014-Oct-13 13:00S 39°37' E 044°54'0 0.0 16.2
2014-Oct-13 12:00S 39°37' E 044°54'1 0.6 16.3
2014-Oct-13 11:00S 39°38' E 044°54'2 1.5 16.3
2014-Oct-13 10:00S 39°39' E 044°54'5 1.1 16.3
2014-Oct-13 06:00S 39°43' E 044°52'0 0.2 16.3
2014-Oct-13 05:00S 39°43' E 044°52'4 1.9 16.2
2014-Oct-13 03:00S 39°47' E 044°49'2 1.0 16.2
2014-Oct-13 01:00S 39°49' E 044°49'1 1.3 16.1
2014-Oct-13 00:00S 39°50' E 044°48'1 0.7 16.0
2014-Oct-12 23:00S 39°50' E 044°48'3 2.8 16.0
2014-Oct-12 22:00S 39°53' E 044°45'4 1.3 16.1
2014-Oct-12 19:00S 39°55' E 044°42'5 2.3 16.3
2014-Oct-12 17:00S 39°58' E 044°37'0 0.0 16.3
2014-Oct-12 16:00S 39°58' E 044°37'1 0.5 16.3
2014-Oct-12 14:00S 39°59' E 044°36'2 2.5 16.3
2014-Oct-12 13:00S 40°01' E 044°35'1 0.6 16.4
2014-Oct-12 11:00S 40°01' E 044°33'9 1.5 16.4
2014-Oct-12 05:00S 40°08' E 044°25'3 3.0 16.1
2014-Oct-12 04:00S 40°10' E 044°22'2 2.0 16.1
2014-Oct-12 03:00S 40°11' E 044°20'2 0.6 16.2
2014-Oct-12 00:00S 40°12' E 044°18'1 0.8 16.2
2014-Oct-11 23:00S 40°12' E 044°17'1 0.7 16.2
2014-Oct-11 21:00S 40°13' E 044°15'9 1.4 16.3
2014-Oct-11 15:00S 40°19' E 044°07'3 1.3 16.5
2014-Oct-11 13:00S 40°20' E 044°04'3 0.7 16.5
2014-Oct-11 09:00S 40°21' E 044°01'8 2.7 16.6
2014-Oct-11 06:00S 40°21' E 043°50'0 0.0 16.6
2014-Oct-11 05:00S 40°21' E 043°50'2 0.8 16.6
2014-Oct-11 02:00S 40°20' E 043°47'1 0.7 16.7
2014-Oct-11 01:00S 40°19' E 043°47'0 0.0 16.6
2014-Oct-11 00:00S 40°19' E 043°47'0 0.3 16.7
2014-Oct-10 23:00S 40°19' E 043°47'1 0.6 16.7
2014-Oct-10 21:00S 40°20' E 043°45'0 0.1 16.6
2014-Oct-10 19:00S 40°20' E 043°45'2 1.6 16.6
2014-Oct-10 18:00S 40°21' E 043°44'   16.6
Track history (hours):
 
Tides and Currents Weather Stations Pressure Air Temp Water Temp Dewpoint Dewpoint Depression Visibility Wind Speed Wind Dir Waves Ship Positions

Drifting buoy 17652

Last reported at 2014-Oct-20 18:00 UTC. Time now 2014-Oct-20 21:15 UTC.
Position S 37°34' E 042°23'.

Water temperature 16.8 ° C

Date/timePositionNaut miles runAvg speedWind from/ knotsBaromVisibWave heightAir tempDewpointWater temp
2014-Oct-20 18:00S 37°34' E 042°23'5 1.6 16.8
2014-Oct-20 15:00S 37°34' E 042°29'0 0.0 16.9
2014-Oct-20 14:00S 37°34' E 042°29'3 0.7 16.9
2014-Oct-20 09:00S 37°36' E 042°33'5 1.7 16.9
2014-Oct-20 06:00S 37°40' E 042°37'0 0.0 16.9
2014-Oct-20 05:00S 37°40' E 042°37'1 0.6 16.9
2014-Oct-20 04:00S 37°40' E 042°37'1 0.6 16.9
2014-Oct-20 02:00S 37°41' E 042°38'1 1.1 16.9
2014-Oct-20 01:00S 37°42' E 042°38'1 0.7 16.9
2014-Oct-20 00:00S 37°42' E 042°39'1 0.4 16.9
2014-Oct-19 21:00S 37°43' E 042°40'1 1.4 16.9
2014-Oct-19 20:00S 37°45' E 042°41'1 0.5 16.9
2014-Oct-19 18:00S 37°45' E 042°42'1 0.6 16.9
2014-Oct-19 16:00S 37°46' E 042°43'1 0.6 16.9
2014-Oct-19 15:00S 37°46' E 042°43'0 0.3 16.9
2014-Oct-19 14:00S 37°47' E 042°43'1 1.1 16.9
2014-Oct-19 13:00S 37°47' E 042°44'1 0.8 16.9
2014-Oct-19 12:00S 37°47' E 042°45'1 0.3 16.9
2014-Oct-19 10:00S 37°47' E 042°46'4 0.8 16.9
2014-Oct-19 05:00S 37°48' E 042°51'0 0.0 16.9
2014-Oct-19 04:00S 37°48' E 042°51'0 0.1 16.9
2014-Oct-19 03:00S 37°48' E 042°51'2 1.7 16.9
2014-Oct-19 02:00S 37°48' E 042°53'1 1.0 16.9
2014-Oct-19 01:00S 37°49' E 042°54'1 0.5 16.9
2014-Oct-18 22:00S 37°50' E 042°55'1 1.0 16.9
2014-Oct-18 21:00S 37°50' E 042°56'2 0.6 16.9
2014-Oct-18 17:00S 37°51' E 042°59'1 0.7 16.9
2014-Oct-18 15:00S 37°52' E 042°60'2 0.8 16.9
2014-Oct-18 13:00S 37°53' E 043°02'0 0.3 16.9
2014-Oct-18 12:00S 37°53' E 043°02'1 1.2 17.0
2014-Oct-18 11:00S 37°54' E 043°03'4 0.7 17.0
2014-Oct-18 06:00S 37°56' E 043°06'2 2.2 16.9
2014-Oct-18 05:00S 37°58' E 043°08'1 0.4 16.9
2014-Oct-18 02:00S 37°59' E 043°09'1 1.2 16.9
2014-Oct-18 01:00S 38°00' E 043°09'5 1.0 16.9
2014-Oct-17 20:00S 38°05' E 043°11'2 1.6 16.9
2014-Oct-17 19:00S 38°06' E 043°11'1 0.5 16.9
2014-Oct-17 17:00S 38°07' E 043°12'1 0.7 16.9
2014-Oct-17 15:00S 38°08' E 043°14'8 0.8 16.9
2014-Oct-17 05:00S 38°12' E 043°22'4 1.5 16.4
2014-Oct-17 02:00S 38°15' E 043°25'0 0.0 16.4
2014-Oct-17 01:00S 38°15' E 043°25'1 1.4 16.4
2014-Oct-17 00:00S 38°16' E 043°27'2 0.6 16.4
2014-Oct-16 20:00S 38°18' E 043°29'4 1.2 16.4
2014-Oct-16 17:00S 38°20' E 043°33'14 1.3 16.6
2014-Oct-16 06:00S 38°31' E 043°45'4 0.7 16.7
2014-Oct-16 01:00S 38°33' E 043°48'2 0.6 16.6
2014-Oct-15 22:00S 38°34' E 043°50'4 1.1 16.6
2014-Oct-15 18:00S 38°37' E 043°54'2 1.0 16.7
2014-Oct-15 16:00S 38°37' E 043°57'4 2.2 16.7
2014-Oct-15 14:00S 38°39' E 044°01'1 0.6 16.7
2014-Oct-15 13:00S 38°40' E 044°02'13 1.8 16.7
2014-Oct-15 06:00S 38°47' E 044°16'6 1.4 16.7
2014-Oct-15 02:00S 38°50' E 044°21'2 2.1 16.6
2014-Oct-15 01:00S 38°51' E 044°23'0 0.0 16.6
2014-Oct-15 00:00S 38°51' E 044°23'3 1.6 16.6
2014-Oct-14 22:00S 38°54' E 044°26'3 1.6 16.5
2014-Oct-14 20:00S 38°56' E 044°29'10 1.9 16.5
2014-Oct-14 15:00S 39°01' E 044°39'1 0.6 16.4
2014-Oct-14 14:00S 39°02' E 044°40'0 0.5 16.4
2014-Oct-14 13:00S 39°02' E 044°40'7 2.5 16.4
2014-Oct-14 10:00S 39°05' E 044°49'7 1.6 16.5
2014-Oct-14 06:00S 39°10' E 044°54'1 1.4 16.4
2014-Oct-14 05:00S 39°11' E 044°55'4 4.5 16.4
2014-Oct-14 04:00S 39°16' E 044°57'3 1.4 16.4
2014-Oct-14 02:00S 39°18' E 044°58'2 0.6 16.4
2014-Oct-13 23:00S 39°20' E 044°58'4 3.5 16.3
2014-Oct-13 22:00S 39°24' E 044°58'10 2.0 16.3
2014-Oct-13 17:00S 39°33' E 044°56'1 0.2 16.2
2014-Oct-13 14:00S 39°34' E 044°56'3 3.1 16.2
2014-Oct-13 13:00S 39°37' E 044°54'0 0.0 16.2
2014-Oct-13 12:00S 39°37' E 044°54'1 0.6 16.3
2014-Oct-13 11:00S 39°38' E 044°54'2 1.5 16.3
2014-Oct-13 10:00S 39°39' E 044°54'5 1.1 16.3
2014-Oct-13 06:00S 39°43' E 044°52'0 0.2 16.3
2014-Oct-13 05:00S 39°43' E 044°52'4 1.9 16.2
2014-Oct-13 03:00S 39°47' E 044°49'2 1.0 16.2
2014-Oct-13 01:00S 39°49' E 044°49'1 1.3 16.1
2014-Oct-13 00:00S 39°50' E 044°48'1 0.7 16.0
2014-Oct-12 23:00S 39°50' E 044°48'3 2.8 16.0
2014-Oct-12 22:00S 39°53' E 044°45'4 1.3 16.1
2014-Oct-12 19:00S 39°55' E 044°42'5 2.3 16.3
2014-Oct-12 17:00S 39°58' E 044°37'0 0.0 16.3
2014-Oct-12 16:00S 39°58' E 044°37'1 0.5 16.3
2014-Oct-12 14:00S 39°59' E 044°36'2 2.5 16.3
2014-Oct-12 13:00S 40°01' E 044°35'1 0.6 16.4
2014-Oct-12 11:00S 40°01' E 044°33'9 1.5 16.4
2014-Oct-12 05:00S 40°08' E 044°25'3 3.0 16.1
2014-Oct-12 04:00S 40°10' E 044°22'2 2.0 16.1
2014-Oct-12 03:00S 40°11' E 044°20'2 0.6 16.2
2014-Oct-12 00:00S 40°12' E 044°18'1 0.8 16.2
2014-Oct-11 23:00S 40°12' E 044°17'1 0.7 16.2
2014-Oct-11 21:00S 40°13' E 044°15'9 1.4 16.3
2014-Oct-11 15:00S 40°19' E 044°07'3 1.3 16.5
2014-Oct-11 13:00S 40°20' E 044°04'3 0.7 16.5
2014-Oct-11 09:00S 40°21' E 044°01'8 2.7 16.6
2014-Oct-11 06:00S 40°21' E 043°50'0 0.0 16.6
2014-Oct-11 05:00S 40°21' E 043°50'2 0.8 16.6
2014-Oct-11 02:00S 40°20' E 043°47'1 0.7 16.7
2014-Oct-11 01:00S 40°19' E 043°47'0 0.0 16.6
2014-Oct-11 00:00S 40°19' E 043°47'0 0.3 16.7
2014-Oct-10 23:00S 40°19' E 043°47'1 0.6 16.7
2014-Oct-10 21:00S 40°20' E 043°45'0 0.1 16.6
2014-Oct-10 19:00S 40°20' E 043°45'2 1.6 16.6
2014-Oct-10 18:00S 40°21' E 043°44'   16.6

Dump ship's entire track history